sensor_id;sensor_type;location;lat;lon;timestamp;temperature;humidity
11894;DHT22;6006;49.696;8.662;2022-11-11T00:00:15;4.10;99.90
11894;DHT22;6006;49.696;8.662;2022-11-11T00:02:44;4.10;99.90
11894;DHT22;6006;49.696;8.662;2022-11-11T00:05:11;4.10;99.90
11894;DHT22;6006;49.696;8.662;2022-11-11T00:07:38;4.00;99.90
11894;DHT22;6006;49.696;8.662;2022-11-11T00:10:05;4.00;99.90
11894;DHT22;6006;49.696;8.662;2022-11-11T00:12:32;4.00;99.90
11894;DHT22;6006;49.696;8.662;2022-11-11T00:14:59;4.00;99.90
11894;DHT22;6006;49.696;8.662;2022-11-11T00:17:26;4.00;99.90
11894;DHT22;6006;49.696;8.662;2022-11-11T00:20:12;3.90;99.90
11894;DHT22;6006;49.696;8.662;2022-11-11T00:22:56;3.90;99.90
11894;DHT22;6006;49.696;8.662;2022-11-11T00:25:55;3.90;99.90
11894;DHT22;6006;49.696;8.662;2022-11-11T00:28:22;3.90;99.90
11894;DHT22;6006;49.696;8.662;2022-11-11T00:30:49;3.90;99.90
11894;DHT22;6006;49.696;8.662;2022-11-11T00:33:16;3.80;99.90
11894;DHT22;6006;49.696;8.662;2022-11-11T00:35:45;3.80;99.90
11894;DHT22;6006;49.696;8.662;2022-11-11T00:38:21;3.80;99.90
11894;DHT22;6006;49.696;8.662;2022-11-11T00:41:06;3.80;99.90
11894;DHT22;6006;49.696;8.662;2022-11-11T00:43:33;3.80;99.90
11894;DHT22;6006;49.696;8.662;2022-11-11T00:46:00;3.90;99.90
11894;DHT22;6006;49.696;8.662;2022-11-11T00:48:40;3.80;99.90
11894;DHT22;6006;49.696;8.662;2022-11-11T00:51:26;3.80;99.90
11894;DHT22;6006;49.696;8.662;2022-11-11T00:53:53;3.80;99.90
11894;DHT22;6006;49.696;8.662;2022-11-11T00:56:21;3.80;99.90
11894;DHT22;6006;49.696;8.662;2022-11-11T00:58:48;3.80;99.90
11894;DHT22;6006;49.696;8.662;2022-11-11T01:01:15;3.70;99.90
11894;DHT22;6006;49.696;8.662;2022-11-11T01:03:43;3.70;99.90
11894;DHT22;6006;49.696;8.662;2022-11-11T01:06:11;3.70;99.90
11894;DHT22;6006;49.696;8.662;2022-11-11T01:08:41;3.70;99.90
11894;DHT22;6006;49.696;8.662;2022-11-11T01:11:13;3.70;99.90
11894;DHT22;6006;49.696;8.662;2022-11-11T01:13:41;3.70;99.90
11894;DHT22;6006;49.696;8.662;2022-11-11T01:16:11;3.70;99.90
11894;DHT22;6006;49.696;8.662;2022-11-11T01:18:38;3.60;99.90
11894;DHT22;6006;49.696;8.662;2022-11-11T01:21:07;3.70;99.90
11894;DHT22;6006;49.696;8.662;2022-11-11T01:23:38;3.70;99.90
11894;DHT22;6006;49.696;8.662;2022-11-11T01:26:10;3.70;99.90
11894;DHT22;6006;49.696;8.662;2022-11-11T01:28:38;3.60;99.90
11894;DHT22;6006;49.696;8.662;2022-11-11T01:31:07;3.70;99.90
11894;DHT22;6006;49.696;8.662;2022-11-11T01:33:35;3.70;99.90
11894;DHT22;6006;49.696;8.662;2022-11-11T01:36:04;3.60;99.90
11894;DHT22;6006;49.696;8.662;2022-11-11T01:38:31;3.70;99.90
11894;DHT22;6006;49.696;8.662;2022-11-11T01:40:57;3.70;99.90
11894;DHT22;6006;49.696;8.662;2022-11-11T01:43:26;3.70;99.90
11894;DHT22;6006;49.696;8.662;2022-11-11T01:45:55;3.60;99.90
11894;DHT22;6006;49.696;8.662;2022-11-11T01:48:30;3.70;99.90
11894;DHT22;6006;49.696;8.662;2022-11-11T01:51:22;3.60;99.90
11894;DHT22;6006;49.696;8.662;2022-11-11T01:53:53;3.70;99.90
11894;DHT22;6006;49.696;8.662;2022-11-11T01:56:22;3.60;99.90
11894;DHT22;6006;49.696;8.662;2022-11-11T01:58:52;3.60;99.90
11894;DHT22;6006;49.696;8.662;2022-11-11T02:01:21;3.60;99.90
11894;DHT22;6006;49.696;8.662;2022-11-11T02:03:48;3.60;99.90
11894;DHT22;6006;49.696;8.662;2022-11-11T02:06:31;3.70;99.90
11894;DHT22;6006;49.696;8.662;2022-11-11T02:08:59;3.60;99.90
11894;DHT22;6006;49.696;8.662;2022-11-11T02:11:27;3.60;99.90
11894;DHT22;6006;49.696;8.662;2022-11-11T02:14:14;3.60;99.90
11894;DHT22;6006;49.696;8.662;2022-11-11T02:16:59;3.60;99.90
11894;DHT22;6006;49.696;8.662;2022-11-11T02:19:33;3.60;99.90
11894;DHT22;6006;49.696;8.662;2022-11-11T02:22:07;3.60;99.90
11894;DHT22;6006;49.696;8.662;2022-11-11T02:24:38;3.60;99.90
11894;DHT22;6006;49.696;8.662;2022-11-11T02:27:10;3.60;99.90
11894;DHT22;6006;49.696;8.662;2022-11-11T02:29:39;3.60;99.90
11894;DHT22;6006;49.696;8.662;2022-11-11T02:32:06;3.60;99.90
11894;DHT22;6006;49.696;8.662;2022-11-11T02:34:34;3.50;99.90
11894;DHT22;6006;49.696;8.662;2022-11-11T02:37:03;3.50;99.90
11894;DHT22;6006;49.696;8.662;2022-11-11T02:39:34;3.50;99.90
11894;DHT22;6006;49.696;8.662;2022-11-11T02:42:05;3.60;99.90
11894;DHT22;6006;49.696;8.662;2022-11-11T02:44:35;3.60;99.90
11894;DHT22;6006;49.696;8.662;2022-11-11T02:47:02;3.70;99.90
11894;DHT22;6006;49.696;8.662;2022-11-11T02:49:29;3.60;99.90
11894;DHT22;6006;49.696;8.662;2022-11-11T02:51:57;3.60;99.90
11894;DHT22;6006;49.696;8.662;2022-11-11T02:54:23;3.60;99.90
11894;DHT22;6006;49.696;8.662;2022-11-11T02:56:50;3.60;99.90
11894;DHT22;6006;49.696;8.662;2022-11-11T02:59:38;3.60;99.90
11894;DHT22;6006;49.696;8.662;2022-11-11T03:02:06;3.60;99.90
11894;DHT22;6006;49.696;8.662;2022-11-11T03:04:33;3.60;99.90
11894;DHT22;6006;49.696;8.662;2022-11-11T03:07:02;3.60;99.90
11894;DHT22;6006;49.696;8.662;2022-11-11T03:09:29;3.60;99.90
11894;DHT22;6006;49.696;8.662;2022-11-11T03:11:56;3.60;99.90
11894;DHT22;6006;49.696;8.662;2022-11-11T03:14:23;3.60;99.90
11894;DHT22;6006;49.696;8.662;2022-11-11T03:16:51;3.60;99.90
11894;DHT22;6006;49.696;8.662;2022-11-11T03:19:36;3.60;99.90
11894;DHT22;6006;49.696;8.662;2022-11-11T03:22:03;3.60;99.90
11894;DHT22;6006;49.696;8.662;2022-11-11T03:24:29;3.50;99.90
11894;DHT22;6006;49.696;8.662;2022-11-11T03:27:10;3.50;99.90
11894;DHT22;6006;49.696;8.662;2022-11-11T03:29:36;3.40;99.90
11894;DHT22;6006;49.696;8.662;2022-11-11T03:32:05;3.50;99.90
11894;DHT22;6006;49.696;8.662;2022-11-11T03:34:34;3.40;99.90
11894;DHT22;6006;49.696;8.662;2022-11-11T03:37:01;3.40;99.90
11894;DHT22;6006;49.696;8.662;2022-11-11T03:39:45;3.40;99.90
11894;DHT22;6006;49.696;8.662;2022-11-11T03:42:12;3.40;99.90
11894;DHT22;6006;49.696;8.662;2022-11-11T03:44:39;3.40;99.90
11894;DHT22;6006;49.696;8.662;2022-11-11T03:47:07;3.40;99.90
11894;DHT22;6006;49.696;8.662;2022-11-11T03:49:34;3.30;99.90
11894;DHT22;6006;49.696;8.662;2022-11-11T03:52:01;3.30;99.90
11894;DHT22;6006;49.696;8.662;2022-11-11T03:54:28;3.30;99.90
11894;DHT22;6006;49.696;8.662;2022-11-11T03:56:55;3.30;99.90
11894;DHT22;6006;49.696;8.662;2022-11-11T03:59:42;3.20;99.90
11894;DHT22;6006;49.696;8.662;2022-11-11T04:02:12;3.30;99.90
11894;DHT22;6006;49.696;8.662;2022-11-11T04:04:57;3.20;99.90
11894;DHT22;6006;49.696;8.662;2022-11-11T04:07:41;3.20;99.90
11894;DHT22;6006;49.696;8.662;2022-11-11T04:10:27;3.20;99.90
11894;DHT22;6006;49.696;8.662;2022-11-11T04:12:56;3.20;99.90
11894;DHT22;6006;49.696;8.662;2022-11-11T04:15:41;3.20;99.90
11894;DHT22;6006;49.696;8.662;2022-11-11T04:18:27;3.20;99.90
11894;DHT22;6006;49.696;8.662;2022-11-11T04:21:08;3.20;99.90
11894;DHT22;6006;49.696;8.662;2022-11-11T04:23:52;3.10;99.90
11894;DHT22;6006;49.696;8.662;2022-11-11T04:26:19;3.10;99.90
11894;DHT22;6006;49.696;8.662;2022-11-11T04:28:45;3.10;99.90
11894;DHT22;6006;49.696;8.662;2022-11-11T04:31:30;3.10;99.90
11894;DHT22;6006;49.696;8.662;2022-11-11T04:33:58;3.10;99.90
11894;DHT22;6006;49.696;8.662;2022-11-11T04:36:25;3.10;99.90
11894;DHT22;6006;49.696;8.662;2022-11-11T04:38:52;3.10;99.90
11894;DHT22;6006;49.696;8.662;2022-11-11T04:41:36;3.10;99.90
11894;DHT22;6006;49.696;8.662;2022-11-11T04:44:03;3.10;99.90
11894;DHT22;6006;49.696;8.662;2022-11-11T04:46:48;3.10;99.90
11894;DHT22;6006;49.696;8.662;2022-11-11T04:49:16;3.00;99.90
11894;DHT22;6006;49.696;8.662;2022-11-11T04:51:43;3.00;99.90
11894;DHT22;6006;49.696;8.662;2022-11-11T04:54:27;3.00;99.90
11894;DHT22;6006;49.696;8.662;2022-11-11T04:57:14;2.90;99.90
11894;DHT22;6006;49.696;8.662;2022-11-11T04:59:40;3.00;99.90
11894;DHT22;6006;49.696;8.662;2022-11-11T05:02:07;3.00;99.90
11894;DHT22;6006;49.696;8.662;2022-11-11T05:04:53;3.00;99.90
11894;DHT22;6006;49.696;8.662;2022-11-11T05:07:20;2.90;99.90
11894;DHT22;6006;49.696;8.662;2022-11-11T05:10:05;3.00;99.90
11894;DHT22;6006;49.696;8.662;2022-11-11T05:12:32;2.90;99.90
11894;DHT22;6006;49.696;8.662;2022-11-11T05:14:58;3.00;99.90
11894;DHT22;6006;49.696;8.662;2022-11-11T05:17:43;3.00;99.90
11894;DHT22;6006;49.696;8.662;2022-11-11T05:20:28;2.90;99.90
11894;DHT22;6006;49.696;8.662;2022-11-11T05:23:13;2.90;99.90
11894;DHT22;6006;49.696;8.662;2022-11-11T05:25:40;2.90;99.90
11894;DHT22;6006;49.696;8.662;2022-11-11T05:28:07;2.90;99.90
11894;DHT22;6006;49.696;8.662;2022-11-11T05:30:33;2.90;99.90
11894;DHT22;6006;49.696;8.662;2022-11-11T05:33:01;2.90;99.90
11894;DHT22;6006;49.696;8.662;2022-11-11T05:35:30;2.90;99.90
11894;DHT22;6006;49.696;8.662;2022-11-11T05:38:01;3.00;99.90
11894;DHT22;6006;49.696;8.662;2022-11-11T05:40:46;2.90;99.90
11894;DHT22;6006;49.696;8.662;2022-11-11T05:43:13;2.90;99.90
11894;DHT22;6006;49.696;8.662;2022-11-11T05:45:40;3.00;99.90
11894;DHT22;6006;49.696;8.662;2022-11-11T05:48:07;3.00;99.90
11894;DHT22;6006;49.696;8.662;2022-11-11T05:50:35;3.00;99.90
11894;DHT22;6006;49.696;8.662;2022-11-11T05:53:06;3.00;99.90
11894;DHT22;6006;49.696;8.662;2022-11-11T05:55:32;3.00;99.90
11894;DHT22;6006;49.696;8.662;2022-11-11T05:57:59;3.00;99.90
11894;DHT22;6006;49.696;8.662;2022-11-11T06:00:26;3.00;99.90
11894;DHT22;6006;49.696;8.662;2022-11-11T06:02:53;3.00;99.90
11894;DHT22;6006;49.696;8.662;2022-11-11T06:05:21;3.00;99.90
11894;DHT22;6006;49.696;8.662;2022-11-11T06:07:49;3.00;99.90
11894;DHT22;6006;49.696;8.662;2022-11-11T06:10:19;3.00;99.90
11894;DHT22;6006;49.696;8.662;2022-11-11T06:12:58;3.00;99.90
11894;DHT22;6006;49.696;8.662;2022-11-11T06:15:30;3.00;99.90
11894;DHT22;6006;49.696;8.662;2022-11-11T06:17:57;2.90;99.90
11894;DHT22;6006;49.696;8.662;2022-11-11T06:20:24;2.90;99.90
11894;DHT22;6006;49.696;8.662;2022-11-11T06:22:53;2.90;99.90
11894;DHT22;6006;49.696;8.662;2022-11-11T06:25:24;2.90;99.90
11894;DHT22;6006;49.696;8.662;2022-11-11T06:28:09;2.90;99.90
11894;DHT22;6006;49.696;8.662;2022-11-11T06:30:36;2.90;99.90
11894;DHT22;6006;49.696;8.662;2022-11-11T06:33:04;3.00;99.90
11894;DHT22;6006;49.696;8.662;2022-11-11T06:35:32;2.90;99.90
11894;DHT22;6006;49.696;8.662;2022-11-11T06:38:01;3.00;99.90
11894;DHT22;6006;49.696;8.662;2022-11-11T06:40:28;3.00;99.90
11894;DHT22;6006;49.696;8.662;2022-11-11T06:42:56;3.10;99.90
11894;DHT22;6006;49.696;8.662;2022-11-11T06:45:24;3.20;99.90
11894;DHT22;6006;49.696;8.662;2022-11-11T06:47:51;3.30;99.90
11894;DHT22;6006;49.696;8.662;2022-11-11T06:50:18;3.40;99.90
11894;DHT22;6006;49.696;8.662;2022-11-11T06:52:45;3.40;99.90
11894;DHT22;6006;49.696;8.662;2022-11-11T06:55:14;3.60;99.90
11894;DHT22;6006;49.696;8.662;2022-11-11T06:57:40;3.70;99.90
11894;DHT22;6006;49.696;8.662;2022-11-11T07:00:08;3.80;99.90
11894;DHT22;6006;49.696;8.662;2022-11-11T07:02:35;3.90;99.90
11894;DHT22;6006;49.696;8.662;2022-11-11T07:05:03;4.00;99.90
11894;DHT22;6006;49.696;8.662;2022-11-11T07:07:30;4.20;99.90
11894;DHT22;6006;49.696;8.662;2022-11-11T07:09:57;4.20;99.90
11894;DHT22;6006;49.696;8.662;2022-11-11T07:12:25;4.40;99.90
11894;DHT22;6006;49.696;8.662;2022-11-11T07:14:52;4.50;99.90
11894;DHT22;6006;49.696;8.662;2022-11-11T07:17:19;4.50;99.90
11894;DHT22;6006;49.696;8.662;2022-11-11T07:19:46;4.60;99.90
11894;DHT22;6006;49.696;8.662;2022-11-11T07:22:13;4.70;99.90
11894;DHT22;6006;49.696;8.662;2022-11-11T07:24:40;4.80;99.90
11894;DHT22;6006;49.696;8.662;2022-11-11T07:27:06;5.00;99.90
11894;DHT22;6006;49.696;8.662;2022-11-11T07:29:35;5.00;99.90
11894;DHT22;6006;49.696;8.662;2022-11-11T07:32:02;5.10;99.90
11894;DHT22;6006;49.696;8.662;2022-11-11T07:34:28;5.30;99.90
11894;DHT22;6006;49.696;8.662;2022-11-11T07:36:55;5.40;99.90
11894;DHT22;6006;49.696;8.662;2022-11-11T07:39:22;5.40;99.90
11894;DHT22;6006;49.696;8.662;2022-11-11T07:41:49;5.50;99.90
11894;DHT22;6006;49.696;8.662;2022-11-11T07:44:17;5.60;99.90
11894;DHT22;6006;49.696;8.662;2022-11-11T07:46:46;5.60;99.90
11894;DHT22;6006;49.696;8.662;2022-11-11T07:49:13;5.60;99.90
11894;DHT22;6006;49.696;8.662;2022-11-11T07:51:40;5.60;99.90
11894;DHT22;6006;49.696;8.662;2022-11-11T07:54:06;5.80;99.90
11894;DHT22;6006;49.696;8.662;2022-11-11T07:56:33;5.80;99.90
11894;DHT22;6006;49.696;8.662;2022-11-11T07:59:00;6.00;99.90
11894;DHT22;6006;49.696;8.662;2022-11-11T08:01:27;6.10;99.90
11894;DHT22;6006;49.696;8.662;2022-11-11T08:03:56;6.20;99.90
11894;DHT22;6006;49.696;8.662;2022-11-11T08:06:23;6.30;99.90
11894;DHT22;6006;49.696;8.662;2022-11-11T08:08:50;6.40;99.90
11894;DHT22;6006;49.696;8.662;2022-11-11T08:11:17;6.40;99.90
11894;DHT22;6006;49.696;8.662;2022-11-11T08:14:04;6.50;99.90
11894;DHT22;6006;49.696;8.662;2022-11-11T08:16:30;6.60;99.90
11894;DHT22;6006;49.696;8.662;2022-11-11T08:18:59;6.70;99.90
11894;DHT22;6006;49.696;8.662;2022-11-11T08:21:26;6.70;99.90
11894;DHT22;6006;49.696;8.662;2022-11-11T08:23:54;6.80;99.90
11894;DHT22;6006;49.696;8.662;2022-11-11T08:26:21;6.80;99.90
11894;DHT22;6006;49.696;8.662;2022-11-11T08:28:50;6.90;99.90
11894;DHT22;6006;49.696;8.662;2022-11-11T08:31:18;6.90;99.90
11894;DHT22;6006;49.696;8.662;2022-11-11T08:33:45;6.90;99.90
11894;DHT22;6006;49.696;8.662;2022-11-11T08:36:13;7.00;99.90
11894;DHT22;6006;49.696;8.662;2022-11-11T08:38:40;7.10;99.90
11894;DHT22;6006;49.696;8.662;2022-11-11T08:41:07;7.10;99.90
11894;DHT22;6006;49.696;8.662;2022-11-11T08:43:33;7.10;99.90
11894;DHT22;6006;49.696;8.662;2022-11-11T08:46:02;7.20;99.90
11894;DHT22;6006;49.696;8.662;2022-11-11T08:48:30;7.20;99.90
11894;DHT22;6006;49.696;8.662;2022-11-11T08:50:57;7.30;99.90
11894;DHT22;6006;49.696;8.662;2022-11-11T08:53:26;7.30;99.90
11894;DHT22;6006;49.696;8.662;2022-11-11T08:55:54;7.30;99.90
11894;DHT22;6006;49.696;8.662;2022-11-11T08:58:21;7.40;99.90
11894;DHT22;6006;49.696;8.662;2022-11-11T09:00:47;7.40;99.90
11894;DHT22;6006;49.696;8.662;2022-11-11T09:03:14;7.40;99.90
11894;DHT22;6006;49.696;8.662;2022-11-11T09:05:41;7.40;99.90
11894;DHT22;6006;49.696;8.662;2022-11-11T09:08:08;7.50;99.90
11894;DHT22;6006;49.696;8.662;2022-11-11T09:10:37;7.40;99.90
11894;DHT22;6006;49.696;8.662;2022-11-11T09:13:05;7.40;99.90
11894;DHT22;6006;49.696;8.662;2022-11-11T09:15:32;7.40;99.90
11894;DHT22;6006;49.696;8.662;2022-11-11T09:17:59;7.30;99.90
11894;DHT22;6006;49.696;8.662;2022-11-11T09:20:28;7.40;99.90
11894;DHT22;6006;49.696;8.662;2022-11-11T09:22:55;7.60;99.90
11894;DHT22;6006;49.696;8.662;2022-11-11T09:25:22;7.70;99.90
11894;DHT22;6006;49.696;8.662;2022-11-11T09:27:57;7.70;99.90
11894;DHT22;6006;49.696;8.662;2022-11-11T09:30:25;7.70;99.90
11894;DHT22;6006;49.696;8.662;2022-11-11T09:32:53;7.80;99.90
11894;DHT22;6006;49.696;8.662;2022-11-11T09:35:20;7.70;99.90
11894;DHT22;6006;49.696;8.662;2022-11-11T09:37:54;7.80;99.90
11894;DHT22;6006;49.696;8.662;2022-11-11T09:40:22;7.90;99.90
11894;DHT22;6006;49.696;8.662;2022-11-11T09:43:02;8.00;99.90
11894;DHT22;6006;49.696;8.662;2022-11-11T09:45:38;8.00;99.90
11894;DHT22;6006;49.696;8.662;2022-11-11T09:48:25;8.00;99.90
11894;DHT22;6006;49.696;8.662;2022-11-11T09:51:01;8.00;99.90
11894;DHT22;6006;49.696;8.662;2022-11-11T09:53:32;8.00;99.90
11894;DHT22;6006;49.696;8.662;2022-11-11T09:56:06;8.00;99.90
11894;DHT22;6006;49.696;8.662;2022-11-11T09:58:38;7.90;99.90
11894;DHT22;6006;49.696;8.662;2022-11-11T10:01:11;8.10;99.90
11894;DHT22;6006;49.696;8.662;2022-11-11T10:03:43;8.30;99.90
11894;DHT22;6006;49.696;8.662;2022-11-11T10:06:17;8.50;99.90
11894;DHT22;6006;49.696;8.662;2022-11-11T10:08:48;8.40;99.90
11894;DHT22;6006;49.696;8.662;2022-11-11T10:11:21;8.40;99.90
11894;DHT22;6006;49.696;8.662;2022-11-11T10:13:53;8.50;99.90
11894;DHT22;6006;49.696;8.662;2022-11-11T10:16:27;8.40;99.90
11894;DHT22;6006;49.696;8.662;2022-11-11T10:19:06;8.40;99.90
11894;DHT22;6006;49.696;8.662;2022-11-11T10:21:43;8.40;99.90
11894;DHT22;6006;49.696;8.662;2022-11-11T10:24:12;8.40;99.90
11894;DHT22;6006;49.696;8.662;2022-11-11T10:26:44;8.20;99.90
11894;DHT22;6006;49.696;8.662;2022-11-11T10:29:15;8.20;99.90
11894;DHT22;6006;49.696;8.662;2022-11-11T10:31:43;8.20;99.90
11894;DHT22;6006;49.696;8.662;2022-11-11T10:34:12;8.30;99.90
11894;DHT22;6006;49.696;8.662;2022-11-11T10:36:43;8.50;99.90
11894;DHT22;6006;49.696;8.662;2022-11-11T10:39:15;8.80;99.90
11894;DHT22;6006;49.696;8.662;2022-11-11T10:41:46;8.90;99.90
11894;DHT22;6006;49.696;8.662;2022-11-11T10:44:25;8.90;99.90
11894;DHT22;6006;49.696;8.662;2022-11-11T10:46:58;8.90;99.90
11894;DHT22;6006;49.696;8.662;2022-11-11T10:49:31;9.00;99.90
11894;DHT22;6006;49.696;8.662;2022-11-11T10:52:03;9.20;99.90
11894;DHT22;6006;49.696;8.662;2022-11-11T10:54:37;9.00;99.90
11894;DHT22;6006;49.696;8.662;2022-11-11T10:57:10;9.00;99.90
11894;DHT22;6006;49.696;8.662;2022-11-11T10:59:43;8.90;99.90
11894;DHT22;6006;49.696;8.662;2022-11-11T11:02:19;8.80;99.90
11894;DHT22;6006;49.696;8.662;2022-11-11T11:04:49;8.80;99.90
11894;DHT22;6006;49.696;8.662;2022-11-11T11:07:21;8.70;99.90
11894;DHT22;6006;49.696;8.662;2022-11-11T11:09:55;8.90;99.90
11894;DHT22;6006;49.696;8.662;2022-11-11T11:12:27;9.00;99.90
11894;DHT22;6006;49.696;8.662;2022-11-11T11:15:01;8.80;99.90
11894;DHT22;6006;49.696;8.662;2022-11-11T11:17:34;8.90;99.90
11894;DHT22;6006;49.696;8.662;2022-11-11T11:20:11;9.10;99.90
11894;DHT22;6006;49.696;8.662;2022-11-11T11:22:47;9.10;99.90
11894;DHT22;6006;49.696;8.662;2022-11-11T11:25:16;9.20;99.90
11894;DHT22;6006;49.696;8.662;2022-11-11T11:27:44;9.40;99.90
11894;DHT22;6006;49.696;8.662;2022-11-11T11:30:15;9.70;99.90
11894;DHT22;6006;49.696;8.662;2022-11-11T11:32:55;9.90;99.90
11894;DHT22;6006;49.696;8.662;2022-11-11T11:35:37;10.00;99.90
11894;DHT22;6006;49.696;8.662;2022-11-11T11:38:05;9.90;99.90
11894;DHT22;6006;49.696;8.662;2022-11-11T11:40:44;10.10;99.90
11894;DHT22;6006;49.696;8.662;2022-11-11T11:43:29;10.20;99.90
11894;DHT22;6006;49.696;8.662;2022-11-11T11:46:00;10.20;99.90
11894;DHT22;6006;49.696;8.662;2022-11-11T11:48:44;10.40;99.90
11894;DHT22;6006;49.696;8.662;2022-11-11T11:51:32;10.50;99.90
11894;DHT22;6006;49.696;8.662;2022-11-11T11:54:11;10.50;99.90
11894;DHT22;6006;49.696;8.662;2022-11-11T11:56:40;10.40;99.90
11894;DHT22;6006;49.696;8.662;2022-11-11T11:59:12;10.50;99.90
11894;DHT22;6006;49.696;8.662;2022-11-11T12:01:50;10.30;99.90
11894;DHT22;6006;49.696;8.662;2022-11-11T12:04:53;9.70;99.90
11894;DHT22;6006;49.696;8.662;2022-11-11T12:07:40;9.60;99.90
11894;DHT22;6006;49.696;8.662;2022-11-11T12:10:21;9.90;99.90
11894;DHT22;6006;49.696;8.662;2022-11-11T12:12:54;10.30;99.90
11894;DHT22;6006;49.696;8.662;2022-11-11T12:15:32;10.60;99.90
11894;DHT22;6006;49.696;8.662;2022-11-11T12:20:56;11.00;99.90
11894;DHT22;6006;49.696;8.662;2022-11-11T12:23:48;11.00;99.90
11894;DHT22;6006;49.696;8.662;2022-11-11T12:26:19;11.00;99.90
11894;DHT22;6006;49.696;8.662;2022-11-11T12:28:58;10.70;99.90
11894;DHT22;6006;49.696;8.662;2022-11-11T12:31:38;10.30;99.90
11894;DHT22;6006;49.696;8.662;2022-11-11T12:34:17;10.10;99.90
11894;DHT22;6006;49.696;8.662;2022-11-11T12:36:52;9.80;99.90
11894;DHT22;6006;49.696;8.662;2022-11-11T12:42:21;9.60;99.90
11894;DHT22;6006;49.696;8.662;2022-11-11T12:44:56;9.40;99.90
11894;DHT22;6006;49.696;8.662;2022-11-11T12:47:34;9.20;99.90
11894;DHT22;6006;49.696;8.662;2022-11-11T12:50:15;9.10;99.90
11894;DHT22;6006;49.696;8.662;2022-11-11T12:52:57;9.00;99.90
11894;DHT22;6006;49.696;8.662;2022-11-11T12:55:35;8.80;99.90
11894;DHT22;6006;49.696;8.662;2022-11-11T12:58:14;8.80;99.90
11894;DHT22;6006;49.696;8.662;2022-11-11T13:00:53;8.80;99.90
11894;DHT22;6006;49.696;8.662;2022-11-11T13:03:40;8.70;99.90
11894;DHT22;6006;49.696;8.662;2022-11-11T13:06:23;8.70;99.90
11894;DHT22;6006;49.696;8.662;2022-11-11T13:09:07;8.60;99.90
11894;DHT22;6006;49.696;8.662;2022-11-11T13:11:42;8.70;99.90
11894;DHT22;6006;49.696;8.662;2022-11-11T13:14:28;8.80;99.90
11894;DHT22;6006;49.696;8.662;2022-11-11T13:16:59;8.70;99.90
11894;DHT22;6006;49.696;8.662;2022-11-11T13:19:33;8.60;99.90
11894;DHT22;6006;49.696;8.662;2022-11-11T13:22:14;8.60;99.90
11894;DHT22;6006;49.696;8.662;2022-11-11T13:24:44;8.70;99.90
11894;DHT22;6006;49.696;8.662;2022-11-11T13:27:16;8.70;99.90
11894;DHT22;6006;49.696;8.662;2022-11-11T13:32:48;8.60;99.90
11894;DHT22;6006;49.696;8.662;2022-11-11T13:35:21;8.60;99.90
11894;DHT22;6006;49.696;8.662;2022-11-11T13:37:50;8.50;99.90
11894;DHT22;6006;49.696;8.662;2022-11-11T13:40:33;8.50;99.90
11894;DHT22;6006;49.696;8.662;2022-11-11T13:43:01;8.50;99.90
11894;DHT22;6006;49.696;8.662;2022-11-11T13:45:33;8.40;99.90
11894;DHT22;6006;49.696;8.662;2022-11-11T13:48:02;8.50;99.90
11894;DHT22;6006;49.696;8.662;2022-11-11T13:50:32;8.40;99.90
11894;DHT22;6006;49.696;8.662;2022-11-11T13:53:04;8.30;99.90
11894;DHT22;6006;49.696;8.662;2022-11-11T13:55:35;8.40;99.90
11894;DHT22;6006;49.696;8.662;2022-11-11T13:58:03;8.50;99.90
11894;DHT22;6006;49.696;8.662;2022-11-11T14:00:33;8.40;99.90
11894;DHT22;6006;49.696;8.662;2022-11-11T14:03:32;8.50;99.90
11894;DHT22;6006;49.696;8.662;2022-11-11T14:09:55;8.30;99.90
11894;DHT22;6006;49.696;8.662;2022-11-11T14:12:35;8.30;99.90
11894;DHT22;6006;49.696;8.662;2022-11-11T14:15:02;8.20;99.90
11894;DHT22;6006;49.696;8.662;2022-11-11T14:17:33;8.10;99.90
11894;DHT22;6006;49.696;8.662;2022-11-11T14:23:21;8.20;99.90
11894;DHT22;6006;49.696;8.662;2022-11-11T14:28:48;8.20;99.90
11894;DHT22;6006;49.696;8.662;2022-11-11T14:31:55;8.20;99.90
11894;DHT22;6006;49.696;8.662;2022-11-11T14:37:41;8.20;99.90
11894;DHT22;6006;49.696;8.662;2022-11-11T14:40:10;8.10;99.90
11894;DHT22;6006;49.696;8.662;2022-11-11T14:42:48;8.20;99.90
11894;DHT22;6006;49.696;8.662;2022-11-11T14:49:00;8.20;99.90
11894;DHT22;6006;49.696;8.662;2022-11-11T14:51:46;8.20;99.90
11894;DHT22;6006;49.696;8.662;2022-11-11T14:54:31;8.20;99.90
11894;DHT22;6006;49.696;8.662;2022-11-11T14:57:04;8.10;99.90
11894;DHT22;6006;49.696;8.662;2022-11-11T14:59:34;8.10;99.90
11894;DHT22;6006;49.696;8.662;2022-11-11T15:02:01;8.20;99.90
11894;DHT22;6006;49.696;8.662;2022-11-11T15:04:36;8.30;99.90
11894;DHT22;6006;49.696;8.662;2022-11-11T15:07:18;8.30;99.90
11894;DHT22;6006;49.696;8.662;2022-11-11T15:10:07;8.20;99.90
11894;DHT22;6006;49.696;8.662;2022-11-11T15:12:48;8.20;99.90
11894;DHT22;6006;49.696;8.662;2022-11-11T15:15:22;8.10;99.90
11894;DHT22;6006;49.696;8.662;2022-11-11T15:17:59;8.00;99.90
11894;DHT22;6006;49.696;8.662;2022-11-11T15:20:50;8.10;99.90
11894;DHT22;6006;49.696;8.662;2022-11-11T15:23:26;8.00;99.90
11894;DHT22;6006;49.696;8.662;2022-11-11T15:26:03;8.00;99.90
11894;DHT22;6006;49.696;8.662;2022-11-11T15:28:42;8.00;99.90
11894;DHT22;6006;49.696;8.662;2022-11-11T15:31:19;8.00;99.90
11894;DHT22;6006;49.696;8.662;2022-11-11T15:33:56;7.90;99.90
11894;DHT22;6006;49.696;8.662;2022-11-11T15:36:36;8.00;99.90
11894;DHT22;6006;49.696;8.662;2022-11-11T15:39:11;7.90;99.90
11894;DHT22;6006;49.696;8.662;2022-11-11T15:41:40;7.90;99.90
11894;DHT22;6006;49.696;8.662;2022-11-11T15:44:14;7.90;99.90
11894;DHT22;6006;49.696;8.662;2022-11-11T15:46:44;7.90;99.90
11894;DHT22;6006;49.696;8.662;2022-11-11T15:49:13;7.90;99.90
11894;DHT22;6006;49.696;8.662;2022-11-11T15:51:40;7.80;99.90
11894;DHT22;6006;49.696;8.662;2022-11-11T15:54:09;7.80;99.90
11894;DHT22;6006;49.696;8.662;2022-11-11T15:56:36;7.80;99.90
11894;DHT22;6006;49.696;8.662;2022-11-11T15:59:17;7.80;99.90
11894;DHT22;6006;49.696;8.662;2022-11-11T16:01:45;7.70;99.90
11894;DHT22;6006;49.696;8.662;2022-11-11T16:04:16;7.60;99.90
11894;DHT22;6006;49.696;8.662;2022-11-11T16:06:44;7.50;99.90
11894;DHT22;6006;49.696;8.662;2022-11-11T16:09:13;7.50;99.90
11894;DHT22;6006;49.696;8.662;2022-11-11T16:11:41;7.50;99.90
11894;DHT22;6006;49.696;8.662;2022-11-11T16:14:19;7.50;99.90
11894;DHT22;6006;49.696;8.662;2022-11-11T16:16:50;7.60;99.90
11894;DHT22;6006;49.696;8.662;2022-11-11T16:19:24;7.60;99.90
11894;DHT22;6006;49.696;8.662;2022-11-11T16:21:57;7.60;99.90
11894;DHT22;6006;49.696;8.662;2022-11-11T16:24:29;7.80;99.90
11894;DHT22;6006;49.696;8.662;2022-11-11T16:26:57;7.70;99.90
11894;DHT22;6006;49.696;8.662;2022-11-11T16:29:31;7.70;99.90
11894;DHT22;6006;49.696;8.662;2022-11-11T16:32:00;7.60;99.90
11894;DHT22;6006;49.696;8.662;2022-11-11T16:34:40;7.60;99.90
11894;DHT22;6006;49.696;8.662;2022-11-11T16:37:09;7.70;99.90
11894;DHT22;6006;49.696;8.662;2022-11-11T16:39:38;7.70;99.90
11894;DHT22;6006;49.696;8.662;2022-11-11T16:42:15;7.60;99.90
11894;DHT22;6006;49.696;8.662;2022-11-11T16:44:47;7.70;99.90
11894;DHT22;6006;49.696;8.662;2022-11-11T16:47:44;7.70;99.90
11894;DHT22;6006;49.696;8.662;2022-11-11T16:50:15;7.60;99.90
11894;DHT22;6006;49.696;8.662;2022-11-11T16:52:46;7.70;99.90
11894;DHT22;6006;49.696;8.662;2022-11-11T16:55:21;7.70;99.90
11894;DHT22;6006;49.696;8.662;2022-11-11T16:57:50;7.70;99.90
11894;DHT22;6006;49.696;8.662;2022-11-11T17:00:19;7.70;99.90